Pensacola Naval Air Station,Forrest Sherman field Pensacola US
ICAO: KNPA
IATA: NPA
Category: Medium
Scheduled Services: No

Elevation: 28 ft
TransAlt. 18000 ft.

Airport Communications:
APP:120.05
ATIS:26.76
SHERMAN CLNC DEL:134.1
DEP:120.65
SHERMAN GND:121.7
SHERMAN BASE OPS:31.21
PMSV METRO:35.96
SHERMAN TWR:120.7

KNPA Zoom In..

Runways:

(A) RW 01 length 7137 ft width 200 ft
---- / hdg 7

(B) RW 07L length 8002 ft width 200 ft
ILS 109.30 / hdg 70

(C) RW 07R length 8001 ft width 200 ft
---- / hdg 69

(D) RW 19 length 7137 ft width 200 ft
---- / hdg 187

(E) RW 25L length 8001 ft width 200 ft
---- / hdg 249

(F) RW 25R length 8002 ft width 200 ft
---- / hdg 250

Location; KNPA
Day. 19 / Time. 20.56 Zulu
* Altimeter: 29.87
* Temperature: 27° c. 80.6°f.
* Wind from: 220° Speed 07 kn.
Dewpoint: 24° c.
Visibility: 10 Statute Miles.
Clouds: Scattered 3600 ft.
Clouds: Broken 15000 ft.
Conditions: Cumulonimbus.

KNPA 192056Z 22007KT 10SM SCT036 BKN150 27/24 A2987 RMK CB DSNT E SLP118 T2 SET T02720244 56017


Wind From 220°
Speed 07 kn.

 
 
jpsmedia.com for Web Design worldairports.se 2018   terms of use